sensor_id;sensor_type;location;lat;lon;timestamp;P1;durP1;ratioP1;P2;durP2;ratioP2
4867;SDS011;2448;48.086;10.862;2022-08-01T00:01:03;2.27;;;2.13;;
4867;SDS011;2448;48.086;10.862;2022-08-01T00:03:28;2.20;;;2.10;;
4867;SDS011;2448;48.086;10.862;2022-08-01T00:05:54;2.57;;;2.37;;
4867;SDS011;2448;48.086;10.862;2022-08-01T00:08:19;5.07;;;2.57;;
4867;SDS011;2448;48.086;10.862;2022-08-01T00:10:45;2.30;;;2.20;;
4867;SDS011;2448;48.086;10.862;2022-08-01T00:13:10;2.33;;;2.13;;
4867;SDS011;2448;48.086;10.862;2022-08-01T00:15:35;2.63;;;2.43;;
4867;SDS011;2448;48.086;10.862;2022-08-01T00:18:01;3.20;;;2.93;;
4867;SDS011;2448;48.086;10.862;2022-08-01T00:20:26;2.87;;;2.40;;
4867;SDS011;2448;48.086;10.862;2022-08-01T00:22:52;2.67;;;2.53;;
4867;SDS011;2448;48.086;10.862;2022-08-01T00:25:17;2.07;;;1.97;;
4867;SDS011;2448;48.086;10.862;2022-08-01T00:27:43;3.93;;;2.97;;
4867;SDS011;2448;48.086;10.862;2022-08-01T00:30:08;2.20;;;2.10;;
4867;SDS011;2448;48.086;10.862;2022-08-01T00:32:34;2.03;;;1.93;;
4867;SDS011;2448;48.086;10.862;2022-08-01T00:34:59;2.60;;;2.20;;
4867;SDS011;2448;48.086;10.862;2022-08-01T00:37:24;2.70;;;2.50;;
4867;SDS011;2448;48.086;10.862;2022-08-01T00:39:50;2.57;;;2.37;;
4867;SDS011;2448;48.086;10.862;2022-08-01T00:42:15;2.23;;;2.13;;
4867;SDS011;2448;48.086;10.862;2022-08-01T00:44:41;2.70;;;2.50;;
4867;SDS011;2448;48.086;10.862;2022-08-01T00:47:06;2.80;;;2.50;;
4867;SDS011;2448;48.086;10.862;2022-08-01T00:49:32;2.73;;;2.53;;
4867;SDS011;2448;48.086;10.862;2022-08-01T00:51:57;2.97;;;2.77;;
4867;SDS011;2448;48.086;10.862;2022-08-01T00:54:24;2.60;;;2.40;;
4867;SDS011;2448;48.086;10.862;2022-08-01T00:56:50;2.40;;;2.30;;
4867;SDS011;2448;48.086;10.862;2022-08-01T00:59:16;2.20;;;2.10;;
4867;SDS011;2448;48.086;10.862;2022-08-01T01:01:42;2.23;;;2.10;;
4867;SDS011;2448;48.086;10.862;2022-08-01T01:04:07;2.50;;;2.20;;
4867;SDS011;2448;48.086;10.862;2022-08-01T01:14:23;2.67;;;2.47;;
4867;SDS011;2448;48.086;10.862;2022-08-01T01:16:51;2.70;;;2.50;;
4867;SDS011;2448;48.086;10.862;2022-08-01T01:19:20;3.50;;;2.63;;
4867;SDS011;2448;48.086;10.862;2022-08-01T01:22:21;4.20;;;2.10;;
4867;SDS011;2448;48.086;10.862;2022-08-01T01:27:25;2.30;;;2.10;;
4867;SDS011;2448;48.086;10.862;2022-08-01T01:29:54;2.60;;;2.40;;
4867;SDS011;2448;48.086;10.862;2022-08-01T01:32:54;2.63;;;2.43;;
4867;SDS011;2448;48.086;10.862;2022-08-01T01:35:14;2.27;;;2.17;;
4867;SDS011;2448;48.086;10.862;2022-08-01T01:37:40;2.60;;;2.40;;
4867;SDS011;2448;48.086;10.862;2022-08-01T01:40:07;2.60;;;2.10;;
4867;SDS011;2448;48.086;10.862;2022-08-01T01:42:34;2.60;;;2.40;;
4867;SDS011;2448;48.086;10.862;2022-08-01T01:45:01;2.30;;;2.20;;
4867;SDS011;2448;48.086;10.862;2022-08-01T01:47:27;3.50;;;3.20;;
4867;SDS011;2448;48.086;10.862;2022-08-01T01:49:53;4.23;;;2.50;;
4867;SDS011;2448;48.086;10.862;2022-08-01T01:52:20;2.47;;;2.37;;
4867;SDS011;2448;48.086;10.862;2022-08-01T01:54:47;9.00;;;2.60;;
4867;SDS011;2448;48.086;10.862;2022-08-01T01:57:14;3.33;;;3.00;;
4867;SDS011;2448;48.086;10.862;2022-08-01T01:59:39;2.37;;;2.20;;
4867;SDS011;2448;48.086;10.862;2022-08-01T02:02:06;2.53;;;2.33;;
4867;SDS011;2448;48.086;10.862;2022-08-01T02:04:33;2.80;;;2.63;;
4867;SDS011;2448;48.086;10.862;2022-08-01T02:07:00;5.20;;;2.27;;
4867;SDS011;2448;48.086;10.862;2022-08-01T02:09:26;2.20;;;2.10;;
4867;SDS011;2448;48.086;10.862;2022-08-01T02:11:52;2.50;;;2.30;;
4867;SDS011;2448;48.086;10.862;2022-08-01T02:14:18;2.50;;;2.30;;
4867;SDS011;2448;48.086;10.862;2022-08-01T02:16:45;3.57;;;2.20;;
4867;SDS011;2448;48.086;10.862;2022-08-01T02:19:12;2.33;;;2.23;;
4867;SDS011;2448;48.086;10.862;2022-08-01T02:21:44;2.90;;;2.70;;
4867;SDS011;2448;48.086;10.862;2022-08-01T02:26:55;2.17;;;1.97;;
4867;SDS011;2448;48.086;10.862;2022-08-01T02:29:24;2.83;;;2.63;;
4867;SDS011;2448;48.086;10.862;2022-08-01T02:31:53;3.60;;;2.70;;
4867;SDS011;2448;48.086;10.862;2022-08-01T02:34:19;2.73;;;2.53;;
4867;SDS011;2448;48.086;10.862;2022-08-01T02:36:46;6.60;;;3.00;;
4867;SDS011;2448;48.086;10.862;2022-08-01T02:39:13;2.40;;;2.20;;
4867;SDS011;2448;48.086;10.862;2022-08-01T02:41:41;2.43;;;2.23;;
4867;SDS011;2448;48.086;10.862;2022-08-01T02:44:07;6.00;;;2.10;;
4867;SDS011;2448;48.086;10.862;2022-08-01T02:46:39;2.73;;;2.53;;
4867;SDS011;2448;48.086;10.862;2022-08-01T02:49:06;2.70;;;2.50;;
4867;SDS011;2448;48.086;10.862;2022-08-01T02:51:32;2.27;;;2.17;;
4867;SDS011;2448;48.086;10.862;2022-08-01T02:53:58;2.57;;;2.43;;
4867;SDS011;2448;48.086;10.862;2022-08-01T02:56:25;2.30;;;2.20;;
4867;SDS011;2448;48.086;10.862;2022-08-01T02:59:01;2.13;;;2.03;;
4867;SDS011;2448;48.086;10.862;2022-08-01T03:01:27;2.37;;;2.27;;
4867;SDS011;2448;48.086;10.862;2022-08-01T03:03:52;2.20;;;2.10;;
4867;SDS011;2448;48.086;10.862;2022-08-01T03:06:18;2.60;;;2.40;;
4867;SDS011;2448;48.086;10.862;2022-08-01T03:08:43;2.20;;;2.10;;
4867;SDS011;2448;48.086;10.862;2022-08-01T03:11:10;2.30;;;2.10;;
4867;SDS011;2448;48.086;10.862;2022-08-01T03:13:37;2.00;;;1.90;;
4867;SDS011;2448;48.086;10.862;2022-08-01T03:16:03;2.63;;;2.43;;
4867;SDS011;2448;48.086;10.862;2022-08-01T03:18:28;2.47;;;2.30;;
4867;SDS011;2448;48.086;10.862;2022-08-01T03:20:55;2.93;;;2.10;;
4867;SDS011;2448;48.086;10.862;2022-08-01T03:23:21;6.20;;;2.10;;
4867;SDS011;2448;48.086;10.862;2022-08-01T03:25:47;2.63;;;2.43;;
4867;SDS011;2448;48.086;10.862;2022-08-01T03:28:14;2.00;;;1.90;;
4867;SDS011;2448;48.086;10.862;2022-08-01T03:30:41;7.17;;;2.30;;
4867;SDS011;2448;48.086;10.862;2022-08-01T03:33:07;2.27;;;2.07;;
4867;SDS011;2448;48.086;10.862;2022-08-01T03:35:34;2.40;;;2.20;;
4867;SDS011;2448;48.086;10.862;2022-08-01T03:38:01;2.70;;;2.43;;
4867;SDS011;2448;48.086;10.862;2022-08-01T03:41:10;2.00;;;1.90;;
4867;SDS011;2448;48.086;10.862;2022-08-01T03:43:17;3.07;;;2.37;;
4867;SDS011;2448;48.086;10.862;2022-08-01T03:45:46;2.00;;;1.90;;
4867;SDS011;2448;48.086;10.862;2022-08-01T03:48:14;2.17;;;2.07;;
4867;SDS011;2448;48.086;10.862;2022-08-01T03:50:41;2.27;;;2.03;;
4867;SDS011;2448;48.086;10.862;2022-08-01T03:53:07;2.63;;;2.40;;
4867;SDS011;2448;48.086;10.862;2022-08-01T03:55:35;4.77;;;2.37;;
4867;SDS011;2448;48.086;10.862;2022-08-01T03:58:02;2.60;;;2.40;;
4867;SDS011;2448;48.086;10.862;2022-08-01T04:00:28;2.47;;;2.27;;
4867;SDS011;2448;48.086;10.862;2022-08-01T04:02:54;2.63;;;2.43;;
4867;SDS011;2448;48.086;10.862;2022-08-01T04:05:20;2.30;;;2.10;;
4867;SDS011;2448;48.086;10.862;2022-08-01T04:07:46;1.97;;;1.87;;
4867;SDS011;2448;48.086;10.862;2022-08-01T04:10:12;2.60;;;2.40;;
4867;SDS011;2448;48.086;10.862;2022-08-01T04:12:37;5.90;;;2.37;;
4867;SDS011;2448;48.086;10.862;2022-08-01T04:15:03;2.13;;;2.03;;
4867;SDS011;2448;48.086;10.862;2022-08-01T04:17:29;3.73;;;2.17;;
4867;SDS011;2448;48.086;10.862;2022-08-01T04:19:54;1.90;;;1.80;;
4867;SDS011;2448;48.086;10.862;2022-08-01T04:22:20;2.30;;;2.10;;
4867;SDS011;2448;48.086;10.862;2022-08-01T04:24:46;2.70;;;2.50;;
4867;SDS011;2448;48.086;10.862;2022-08-01T04:27:17;2.23;;;2.13;;
4867;SDS011;2448;48.086;10.862;2022-08-01T04:29:43;2.03;;;1.93;;
4867;SDS011;2448;48.086;10.862;2022-08-01T04:32:10;1.97;;;1.87;;
4867;SDS011;2448;48.086;10.862;2022-08-01T04:34:37;2.10;;;2.00;;
4867;SDS011;2448;48.086;10.862;2022-08-01T04:37:03;13.47;;;2.70;;
4867;SDS011;2448;48.086;10.862;2022-08-01T04:39:31;9.27;;;2.93;;
4867;SDS011;2448;48.086;10.862;2022-08-01T04:41:57;2.00;;;1.90;;
4867;SDS011;2448;48.086;10.862;2022-08-01T04:44:23;4.43;;;2.40;;
4867;SDS011;2448;48.086;10.862;2022-08-01T04:46:49;4.97;;;2.20;;
4867;SDS011;2448;48.086;10.862;2022-08-01T04:49:15;2.40;;;2.30;;
4867;SDS011;2448;48.086;10.862;2022-08-01T04:51:54;2.23;;;2.03;;
4867;SDS011;2448;48.086;10.862;2022-08-01T04:54:26;11.83;;;2.97;;
4867;SDS011;2448;48.086;10.862;2022-08-01T04:56:52;2.57;;;1.83;;
4867;SDS011;2448;48.086;10.862;2022-08-01T04:59:19;6.37;;;2.70;;
4867;SDS011;2448;48.086;10.862;2022-08-01T05:02:02;63.83;;;3.30;;
4867;SDS011;2448;48.086;10.862;2022-08-01T05:04:28;19.53;;;3.13;;
4867;SDS011;2448;48.086;10.862;2022-08-01T05:06:53;7.83;;;3.40;;
4867;SDS011;2448;48.086;10.862;2022-08-01T05:09:19;5.80;;;3.13;;
4867;SDS011;2448;48.086;10.862;2022-08-01T05:11:45;3.10;;;2.50;;
4867;SDS011;2448;48.086;10.862;2022-08-01T05:14:10;4.67;;;2.80;;
4867;SDS011;2448;48.086;10.862;2022-08-01T05:16:36;4.60;;;2.63;;
4867;SDS011;2448;48.086;10.862;2022-08-01T05:19:01;8.03;;;2.73;;
4867;SDS011;2448;48.086;10.862;2022-08-01T05:21:27;3.47;;;2.37;;
4867;SDS011;2448;48.086;10.862;2022-08-01T05:23:53;3.67;;;2.27;;
4867;SDS011;2448;48.086;10.862;2022-08-01T05:26:18;7.83;;;2.37;;
4867;SDS011;2448;48.086;10.862;2022-08-01T05:28:43;2.40;;;2.20;;
4867;SDS011;2448;48.086;10.862;2022-08-01T05:31:09;2.37;;;1.97;;
4867;SDS011;2448;48.086;10.862;2022-08-01T05:33:34;2.17;;;1.83;;
4867;SDS011;2448;48.086;10.862;2022-08-01T05:36:00;4.30;;;2.07;;
4867;SDS011;2448;48.086;10.862;2022-08-01T05:38:25;4.87;;;2.30;;
4867;SDS011;2448;48.086;10.862;2022-08-01T05:40:50;2.30;;;2.10;;
4867;SDS011;2448;48.086;10.862;2022-08-01T05:43:16;3.07;;;2.77;;
4867;SDS011;2448;48.086;10.862;2022-08-01T05:45:41;5.97;;;2.40;;
4867;SDS011;2448;48.086;10.862;2022-08-01T05:48:07;2.90;;;2.60;;
4867;SDS011;2448;48.086;10.862;2022-08-01T05:50:32;3.30;;;3.10;;
4867;SDS011;2448;48.086;10.862;2022-08-01T05:52:58;13.30;;;3.40;;
4867;SDS011;2448;48.086;10.862;2022-08-01T05:55:23;10.00;;;3.00;;
4867;SDS011;2448;48.086;10.862;2022-08-01T05:57:48;3.70;;;2.20;;
4867;SDS011;2448;48.086;10.862;2022-08-01T06:00:14;4.03;;;2.57;;
4867;SDS011;2448;48.086;10.862;2022-08-01T06:02:44;2.10;;;1.93;;
4867;SDS011;2448;48.086;10.862;2022-08-01T06:05:09;5.30;;;2.33;;
4867;SDS011;2448;48.086;10.862;2022-08-01T06:07:35;3.00;;;2.70;;
4867;SDS011;2448;48.086;10.862;2022-08-01T06:10:00;4.80;;;2.20;;
4867;SDS011;2448;48.086;10.862;2022-08-01T06:12:25;2.43;;;2.33;;
4867;SDS011;2448;48.086;10.862;2022-08-01T06:14:51;4.73;;;1.77;;
4867;SDS011;2448;48.086;10.862;2022-08-01T06:17:16;4.97;;;2.00;;
4867;SDS011;2448;48.086;10.862;2022-08-01T06:19:42;2.60;;;2.17;;
4867;SDS011;2448;48.086;10.862;2022-08-01T06:22:07;5.43;;;2.40;;
4867;SDS011;2448;48.086;10.862;2022-08-01T06:24:32;2.33;;;2.10;;
4867;SDS011;2448;48.086;10.862;2022-08-01T06:26:58;1.80;;;1.70;;
4867;SDS011;2448;48.086;10.862;2022-08-01T06:29:23;1.77;;;1.67;;
4867;SDS011;2448;48.086;10.862;2022-08-01T06:31:49;2.63;;;2.07;;
4867;SDS011;2448;48.086;10.862;2022-08-01T06:34:15;2.07;;;1.90;;
4867;SDS011;2448;48.086;10.862;2022-08-01T06:36:40;1.50;;;1.50;;
4867;SDS011;2448;48.086;10.862;2022-08-01T06:39:05;11.20;;;2.07;;
4867;SDS011;2448;48.086;10.862;2022-08-01T06:41:31;2.53;;;2.17;;
4867;SDS011;2448;48.086;10.862;2022-08-01T06:43:57;2.27;;;2.17;;
4867;SDS011;2448;48.086;10.862;2022-08-01T06:46:22;1.90;;;1.80;;
4867;SDS011;2448;48.086;10.862;2022-08-01T06:48:48;1.57;;;1.47;;
4867;SDS011;2448;48.086;10.862;2022-08-01T06:51:13;2.10;;;2.00;;
4867;SDS011;2448;48.086;10.862;2022-08-01T06:53:41;1.90;;;1.80;;
4867;SDS011;2448;48.086;10.862;2022-08-01T06:56:07;2.40;;;1.57;;
4867;SDS011;2448;48.086;10.862;2022-08-01T06:58:34;2.23;;;2.03;;
4867;SDS011;2448;48.086;10.862;2022-08-01T07:01:00;2.00;;;1.60;;
4867;SDS011;2448;48.086;10.862;2022-08-01T07:03:25;2.20;;;2.00;;
4867;SDS011;2448;48.086;10.862;2022-08-01T07:05:51;1.93;;;1.80;;
4867;SDS011;2448;48.086;10.862;2022-08-01T07:08:16;5.83;;;1.63;;
4867;SDS011;2448;48.086;10.862;2022-08-01T07:10:42;2.07;;;1.60;;
4867;SDS011;2448;48.086;10.862;2022-08-01T07:13:08;2.07;;;1.97;;
4867;SDS011;2448;48.086;10.862;2022-08-01T07:15:33;3.73;;;2.03;;
4867;SDS011;2448;48.086;10.862;2022-08-01T07:17:59;1.80;;;1.70;;
4867;SDS011;2448;48.086;10.862;2022-08-01T07:20:28;2.13;;;1.90;;
4867;SDS011;2448;48.086;10.862;2022-08-01T07:22:54;3.27;;;1.90;;
4867;SDS011;2448;48.086;10.862;2022-08-01T07:25:19;1.67;;;1.57;;
4867;SDS011;2448;48.086;10.862;2022-08-01T07:27:45;1.80;;;1.70;;
4867;SDS011;2448;48.086;10.862;2022-08-01T07:30:10;2.40;;;2.20;;
4867;SDS011;2448;48.086;10.862;2022-08-01T07:32:36;2.53;;;1.50;;
4867;SDS011;2448;48.086;10.862;2022-08-01T07:35:02;1.70;;;1.70;;
4867;SDS011;2448;48.086;10.862;2022-08-01T07:37:27;2.10;;;1.90;;
4867;SDS011;2448;48.086;10.862;2022-08-01T07:39:52;2.20;;;2.03;;
4867;SDS011;2448;48.086;10.862;2022-08-01T07:42:18;1.90;;;1.80;;
4867;SDS011;2448;48.086;10.862;2022-08-01T07:44:43;1.50;;;1.50;;
4867;SDS011;2448;48.086;10.862;2022-08-01T07:47:08;3.30;;;2.10;;
4867;SDS011;2448;48.086;10.862;2022-08-01T07:49:34;1.80;;;1.70;;
4867;SDS011;2448;48.086;10.862;2022-08-01T07:52:00;2.13;;;1.80;;
4867;SDS011;2448;48.086;10.862;2022-08-01T07:54:25;1.87;;;1.77;;
4867;SDS011;2448;48.086;10.862;2022-08-01T07:56:53;1.97;;;1.87;;
4867;SDS011;2448;48.086;10.862;2022-08-01T07:59:18;1.60;;;1.60;;
4867;SDS011;2448;48.086;10.862;2022-08-01T08:01:48;1.60;;;1.60;;
4867;SDS011;2448;48.086;10.862;2022-08-01T08:04:13;1.83;;;1.73;;
4867;SDS011;2448;48.086;10.862;2022-08-01T08:06:39;1.63;;;1.63;;
4867;SDS011;2448;48.086;10.862;2022-08-01T08:09:06;2.70;;;1.90;;
4867;SDS011;2448;48.086;10.862;2022-08-01T08:11:32;1.90;;;1.80;;
4867;SDS011;2448;48.086;10.862;2022-08-01T08:13:57;1.60;;;1.57;;
4867;SDS011;2448;48.086;10.862;2022-08-01T08:16:22;1.90;;;1.70;;
4867;SDS011;2448;48.086;10.862;2022-08-01T08:18:48;2.00;;;1.90;;
4867;SDS011;2448;48.086;10.862;2022-08-01T08:21:13;1.85;;;1.75;;
4867;SDS011;2448;48.086;10.862;2022-08-01T08:23:39;1.90;;;1.80;;
4867;SDS011;2448;48.086;10.862;2022-08-01T08:26:22;1.42;;;1.42;;
4867;SDS011;2448;48.086;10.862;2022-08-01T08:28:49;1.40;;;1.40;;
4867;SDS011;2448;48.086;10.862;2022-08-01T08:31:15;1.60;;;1.50;;
4867;SDS011;2448;48.086;10.862;2022-08-01T08:33:40;2.25;;;1.70;;
4867;SDS011;2448;48.086;10.862;2022-08-01T08:36:05;2.03;;;1.85;;
4867;SDS011;2448;48.086;10.862;2022-08-01T08:38:31;1.38;;;1.38;;
4867;SDS011;2448;48.086;10.862;2022-08-01T08:40:56;1.40;;;1.40;;
4867;SDS011;2448;48.086;10.862;2022-08-01T08:43:22;1.70;;;1.60;;
4867;SDS011;2448;48.086;10.862;2022-08-01T08:45:49;1.58;;;1.48;;
4867;SDS011;2448;48.086;10.862;2022-08-01T08:48:15;1.42;;;1.42;;
4867;SDS011;2448;48.086;10.862;2022-08-01T08:50:42;2.67;;;1.70;;
4867;SDS011;2448;48.086;10.862;2022-08-01T08:53:08;1.70;;;1.60;;
4867;SDS011;2448;48.086;10.862;2022-08-01T08:55:34;1.00;;;1.00;;
4867;SDS011;2448;48.086;10.862;2022-08-01T08:58:00;1.70;;;1.58;;
4867;SDS011;2448;48.086;10.862;2022-08-01T09:00:27;1.63;;;1.52;;
4867;SDS011;2448;48.086;10.862;2022-08-01T09:02:52;1.50;;;1.48;;
4867;SDS011;2448;48.086;10.862;2022-08-01T09:05:22;1.63;;;1.52;;
4867;SDS011;2448;48.086;10.862;2022-08-01T09:07:51;1.90;;;1.77;;
4867;SDS011;2448;48.086;10.862;2022-08-01T09:10:16;1.38;;;1.38;;
4867;SDS011;2448;48.086;10.862;2022-08-01T09:13:01;1.40;;;1.30;;
4867;SDS011;2448;48.086;10.862;2022-08-01T09:18:03;1.55;;;1.48;;
4867;SDS011;2448;48.086;10.862;2022-08-01T09:20:29;1.33;;;1.33;;
4867;SDS011;2448;48.086;10.862;2022-08-01T09:22:54;1.45;;;1.35;;
4867;SDS011;2448;48.086;10.862;2022-08-01T09:25:20;1.23;;;1.10;;
4867;SDS011;2448;48.086;10.862;2022-08-01T09:27:45;1.43;;;1.33;;
4867;SDS011;2448;48.086;10.862;2022-08-01T09:30:12;1.13;;;1.13;;
4867;SDS011;2448;48.086;10.862;2022-08-01T09:35:25;1.33;;;1.23;;
4867;SDS011;2448;48.086;10.862;2022-08-01T09:37:51;1.60;;;1.30;;
4867;SDS011;2448;48.086;10.862;2022-08-01T09:40:16;1.57;;;1.47;;
4867;SDS011;2448;48.086;10.862;2022-08-01T09:42:42;1.40;;;1.40;;
4867;SDS011;2448;48.086;10.862;2022-08-01T09:45:07;4.23;;;1.30;;
4867;SDS011;2448;48.086;10.862;2022-08-01T09:47:36;1.80;;;1.13;;
4867;SDS011;2448;48.086;10.862;2022-08-01T09:50:02;1.50;;;1.40;;
4867;SDS011;2448;48.086;10.862;2022-08-01T09:52:27;1.37;;;1.10;;
4867;SDS011;2448;48.086;10.862;2022-08-01T09:54:54;1.10;;;1.10;;
4867;SDS011;2448;48.086;10.862;2022-08-01T09:57:20;1.43;;;1.33;;
4867;SDS011;2448;48.086;10.862;2022-08-01T09:59:46;1.27;;;1.27;;
4867;SDS011;2448;48.086;10.862;2022-08-01T10:02:13;1.00;;;1.00;;
4867;SDS011;2448;48.086;10.862;2022-08-01T10:04:50;1.40;;;1.40;;
4867;SDS011;2448;48.086;10.862;2022-08-01T10:07:16;1.30;;;1.30;;
4867;SDS011;2448;48.086;10.862;2022-08-01T10:09:42;1.27;;;1.27;;
4867;SDS011;2448;48.086;10.862;2022-08-01T10:12:08;1.43;;;1.33;;
4867;SDS011;2448;48.086;10.862;2022-08-01T10:14:34;1.57;;;1.47;;
4867;SDS011;2448;48.086;10.862;2022-08-01T10:17:01;1.23;;;1.23;;
4867;SDS011;2448;48.086;10.862;2022-08-01T10:19:28;1.37;;;1.23;;
4867;SDS011;2448;48.086;10.862;2022-08-01T10:21:54;1.80;;;1.50;;
4867;SDS011;2448;48.086;10.862;2022-08-01T10:24:20;1.10;;;1.10;;
4867;SDS011;2448;48.086;10.862;2022-08-01T10:26:47;1.30;;;1.30;;
4867;SDS011;2448;48.086;10.862;2022-08-01T10:29:13;2.30;;;1.40;;
4867;SDS011;2448;48.086;10.862;2022-08-01T10:31:41;1.20;;;1.20;;
4867;SDS011;2448;48.086;10.862;2022-08-01T10:34:07;1.57;;;1.47;;
4867;SDS011;2448;48.086;10.862;2022-08-01T10:36:34;1.10;;;1.10;;
4867;SDS011;2448;48.086;10.862;2022-08-01T10:39:04;1.40;;;1.30;;
4867;SDS011;2448;48.086;10.862;2022-08-01T10:41:30;2.40;;;1.77;;
4867;SDS011;2448;48.086;10.862;2022-08-01T10:43:55;2.50;;;1.30;;
4867;SDS011;2448;48.086;10.862;2022-08-01T10:46:22;1.30;;;1.20;;
4867;SDS011;2448;48.086;10.862;2022-08-01T10:51:12;1.73;;;1.53;;
4867;SDS011;2448;48.086;10.862;2022-08-01T10:53:53;1.90;;;1.40;;
4867;SDS011;2448;48.086;10.862;2022-08-01T10:56:19;2.60;;;1.07;;
4867;SDS011;2448;48.086;10.862;2022-08-01T10:58:46;1.40;;;1.30;;
4867;SDS011;2448;48.086;10.862;2022-08-01T11:03:55;1.33;;;1.20;;
4867;SDS011;2448;48.086;10.862;2022-08-01T11:06:25;1.00;;;1.00;;
4867;SDS011;2448;48.086;10.862;2022-08-01T11:08:52;2.73;;;1.17;;
4867;SDS011;2448;48.086;10.862;2022-08-01T11:11:19;1.10;;;1.10;;
4867;SDS011;2448;48.086;10.862;2022-08-01T11:16:37;1.40;;;1.33;;
4867;SDS011;2448;48.086;10.862;2022-08-01T11:19:04;1.00;;;0.90;;
4867;SDS011;2448;48.086;10.862;2022-08-01T11:24:13;2.17;;;0.90;;
4867;SDS011;2448;48.086;10.862;2022-08-01T11:26:39;1.20;;;1.20;;
4867;SDS011;2448;48.086;10.862;2022-08-01T11:29:12;1.87;;;1.10;;
4867;SDS011;2448;48.086;10.862;2022-08-01T11:31:37;1.53;;;1.10;;
4867;SDS011;2448;48.086;10.862;2022-08-01T11:34:03;1.10;;;1.10;;
4867;SDS011;2448;48.086;10.862;2022-08-01T11:36:28;1.13;;;1.03;;
4867;SDS011;2448;48.086;10.862;2022-08-01T11:41:24;0.80;;;0.80;;
4867;SDS011;2448;48.086;10.862;2022-08-01T11:51:59;0.90;;;0.90;;
4867;SDS011;2448;48.086;10.862;2022-08-01T11:54:26;1.33;;;1.23;;
4867;SDS011;2448;48.086;10.862;2022-08-01T11:56:53;1.20;;;1.10;;
4867;SDS011;2448;48.086;10.862;2022-08-01T11:59:19;1.70;;;1.50;;
4867;SDS011;2448;48.086;10.862;2022-08-01T12:01:46;1.10;;;1.10;;
4867;SDS011;2448;48.086;10.862;2022-08-01T12:04:11;1.10;;;1.00;;
4867;SDS011;2448;48.086;10.862;2022-08-01T12:06:36;1.40;;;1.30;;
4867;SDS011;2448;48.086;10.862;2022-08-01T12:09:21;0.90;;;0.90;;
4867;SDS011;2448;48.086;10.862;2022-08-01T12:11:48;1.17;;;1.17;;
4867;SDS011;2448;48.086;10.862;2022-08-01T12:14:20;1.23;;;1.03;;
4867;SDS011;2448;48.086;10.862;2022-08-01T12:16:52;0.97;;;0.90;;
4867;SDS011;2448;48.086;10.862;2022-08-01T12:19:21;1.00;;;1.00;;
4867;SDS011;2448;48.086;10.862;2022-08-01T12:24:32;1.20;;;1.20;;
4867;SDS011;2448;48.086;10.862;2022-08-01T12:26:58;0.90;;;0.90;;
4867;SDS011;2448;48.086;10.862;2022-08-01T12:29:33;1.03;;;1.00;;
4867;SDS011;2448;48.086;10.862;2022-08-01T12:31:58;0.97;;;0.97;;
4867;SDS011;2448;48.086;10.862;2022-08-01T12:34:27;1.27;;;1.27;;
4867;SDS011;2448;48.086;10.862;2022-08-01T12:36:57;0.87;;;0.87;;
4867;SDS011;2448;48.086;10.862;2022-08-01T12:39:29;0.80;;;0.80;;
4867;SDS011;2448;48.086;10.862;2022-08-01T12:41:54;2.60;;;1.20;;
4867;SDS011;2448;48.086;10.862;2022-08-01T12:44:19;1.10;;;1.10;;
4867;SDS011;2448;48.086;10.862;2022-08-01T12:46:45;0.93;;;0.93;;
4867;SDS011;2448;48.086;10.862;2022-08-01T12:49:10;0.80;;;0.80;;
4867;SDS011;2448;48.086;10.862;2022-08-01T12:51:36;1.77;;;1.07;;
4867;SDS011;2448;48.086;10.862;2022-08-01T12:54:02;1.20;;;1.20;;
4867;SDS011;2448;48.086;10.862;2022-08-01T12:56:32;7.40;;;1.10;;
4867;SDS011;2448;48.086;10.862;2022-08-01T12:58:58;1.10;;;1.10;;
4867;SDS011;2448;48.086;10.862;2022-08-01T13:01:27;1.10;;;1.10;;
4867;SDS011;2448;48.086;10.862;2022-08-01T13:04:03;0.80;;;0.80;;
4867;SDS011;2448;48.086;10.862;2022-08-01T13:06:31;1.15;;;1.00;;
4867;SDS011;2448;48.086;10.862;2022-08-01T13:09:07;1.58;;;1.10;;
4867;SDS011;2448;48.086;10.862;2022-08-01T13:11:34;0.98;;;0.98;;
4867;SDS011;2448;48.086;10.862;2022-08-01T13:13:59;1.00;;;1.00;;
4867;SDS011;2448;48.086;10.862;2022-08-01T13:16:25;1.00;;;1.00;;
4867;SDS011;2448;48.086;10.862;2022-08-01T13:18:54;1.10;;;1.10;;
4867;SDS011;2448;48.086;10.862;2022-08-01T13:21:27;1.20;;;1.20;;
4867;SDS011;2448;48.086;10.862;2022-08-01T13:24:10;3.07;;;0.90;;
4867;SDS011;2448;48.086;10.862;2022-08-01T13:29:06;1.63;;;1.10;;
4867;SDS011;2448;48.086;10.862;2022-08-01T13:31:32;1.37;;;1.27;;
4867;SDS011;2448;48.086;10.862;2022-08-01T13:33:58;0.93;;;0.93;;
4867;SDS011;2448;48.086;10.862;2022-08-01T13:36:24;0.80;;;0.80;;
4867;SDS011;2448;48.086;10.862;2022-08-01T13:38:52;2.30;;;0.97;;
4867;SDS011;2448;48.086;10.862;2022-08-01T13:41:35;1.10;;;1.10;;
4867;SDS011;2448;48.086;10.862;2022-08-01T13:44:01;3.53;;;1.10;;
4867;SDS011;2448;48.086;10.862;2022-08-01T13:46:26;2.10;;;1.20;;
4867;SDS011;2448;48.086;10.862;2022-08-01T13:48:52;1.00;;;1.00;;
4867;SDS011;2448;48.086;10.862;2022-08-01T13:51:17;1.20;;;1.20;;
4867;SDS011;2448;48.086;10.862;2022-08-01T13:53:43;1.40;;;1.30;;
4867;SDS011;2448;48.086;10.862;2022-08-01T13:56:08;1.37;;;1.27;;
4867;SDS011;2448;48.086;10.862;2022-08-01T13:58:34;13.90;;;1.60;;
4867;SDS011;2448;48.086;10.862;2022-08-01T14:00:59;1.43;;;1.43;;
4867;SDS011;2448;48.086;10.862;2022-08-01T14:03:24;1.70;;;1.47;;
4867;SDS011;2448;48.086;10.862;2022-08-01T14:05:50;3.83;;;2.20;;
4867;SDS011;2448;48.086;10.862;2022-08-01T14:08:15;2.20;;;1.33;;
4867;SDS011;2448;48.086;10.862;2022-08-01T14:10:40;2.87;;;2.20;;
4867;SDS011;2448;48.086;10.862;2022-08-01T14:13:06;1.43;;;1.33;;
4867;SDS011;2448;48.086;10.862;2022-08-01T14:15:31;2.13;;;2.00;;
4867;SDS011;2448;48.086;10.862;2022-08-01T14:17:57;1.80;;;1.70;;
4867;SDS011;2448;48.086;10.862;2022-08-01T14:20:23;1.70;;;1.60;;
4867;SDS011;2448;48.086;10.862;2022-08-01T14:22:48;2.03;;;1.93;;
4867;SDS011;2448;48.086;10.862;2022-08-01T14:25:14;3.90;;;1.70;;
4867;SDS011;2448;48.086;10.862;2022-08-01T14:27:39;5.53;;;1.73;;
4867;SDS011;2448;48.086;10.862;2022-08-01T14:30:07;2.30;;;1.63;;
4867;SDS011;2448;48.086;10.862;2022-08-01T14:32:32;2.40;;;1.90;;
4867;SDS011;2448;48.086;10.862;2022-08-01T14:34:59;1.60;;;1.50;;
4867;SDS011;2448;48.086;10.862;2022-08-01T14:37:24;1.57;;;1.47;;
4867;SDS011;2448;48.086;10.862;2022-08-01T14:39:49;2.00;;;1.40;;
4867;SDS011;2448;48.086;10.862;2022-08-01T14:42:15;1.60;;;1.50;;
4867;SDS011;2448;48.086;10.862;2022-08-01T14:44:40;1.30;;;1.20;;
4867;SDS011;2448;48.086;10.862;2022-08-01T14:47:06;8.90;;;1.63;;
4867;SDS011;2448;48.086;10.862;2022-08-01T14:49:31;1.27;;;1.27;;
4867;SDS011;2448;48.086;10.862;2022-08-01T14:51:56;1.93;;;1.80;;
4867;SDS011;2448;48.086;10.862;2022-08-01T14:54:23;2.07;;;1.47;;
4867;SDS011;2448;48.086;10.862;2022-08-01T14:56:48;3.07;;;1.70;;
4867;SDS011;2448;48.086;10.862;2022-08-01T14:59:14;1.03;;;1.00;;
4867;SDS011;2448;48.086;10.862;2022-08-01T15:01:39;1.07;;;1.07;;
4867;SDS011;2448;48.086;10.862;2022-08-01T15:04:05;1.47;;;1.37;;
4867;SDS011;2448;48.086;10.862;2022-08-01T15:06:30;1.53;;;1.10;;
4867;SDS011;2448;48.086;10.862;2022-08-01T15:08:55;0.97;;;0.97;;
4867;SDS011;2448;48.086;10.862;2022-08-01T15:11:21;1.10;;;1.10;;
4867;SDS011;2448;48.086;10.862;2022-08-01T15:13:46;1.40;;;1.37;;
4867;SDS011;2448;48.086;10.862;2022-08-01T15:16:31;1.27;;;1.17;;
4867;SDS011;2448;48.086;10.862;2022-08-01T15:18:57;2.13;;;1.33;;
4867;SDS011;2448;48.086;10.862;2022-08-01T15:21:22;1.10;;;1.10;;
4867;SDS011;2448;48.086;10.862;2022-08-01T15:23:47;1.53;;;1.10;;
4867;SDS011;2448;48.086;10.862;2022-08-01T15:26:13;1.53;;;1.17;;
4867;SDS011;2448;48.086;10.862;2022-08-01T15:28:38;1.03;;;0.93;;
4867;SDS011;2448;48.086;10.862;2022-08-01T15:31:04;0.70;;;0.70;;
4867;SDS011;2448;48.086;10.862;2022-08-01T15:33:29;1.97;;;1.03;;
4867;SDS011;2448;48.086;10.862;2022-08-01T15:35:55;1.83;;;1.20;;
4867;SDS011;2448;48.086;10.862;2022-08-01T15:38:20;1.20;;;1.20;;
4867;SDS011;2448;48.086;10.862;2022-08-01T15:40:46;1.17;;;0.90;;
4867;SDS011;2448;48.086;10.862;2022-08-01T15:43:12;1.17;;;0.93;;